sensor_id;sensor_type;location;lat;lon;timestamp;pressure;altitude;pressure_sealevel;temperature;humidity
56330;BME280;42236;48.058;10.632;2023-04-20T00:00:12;94536.16;;;3.81;97.68
56330;BME280;42236;48.058;10.632;2023-04-20T00:03:00;94537.28;;;3.80;97.43
56330;BME280;42236;48.058;10.632;2023-04-20T00:05:46;94540.63;;;3.85;97.79
56330;BME280;42236;48.058;10.632;2023-04-20T00:08:33;94539.50;;;3.87;97.63
56330;BME280;42236;48.058;10.632;2023-04-20T00:11:19;94528.66;;;3.83;98.22
56330;BME280;42236;48.058;10.632;2023-04-20T00:14:05;94524.50;;;3.77;99.21
56330;BME280;42236;48.058;10.632;2023-04-20T00:16:50;94513.16;;;3.71;100.00
56330;BME280;42236;48.058;10.632;2023-04-20T00:19:36;94509.50;;;3.67;100.00
56330;BME280;42236;48.058;10.632;2023-04-20T00:22:22;94518.00;;;3.69;100.00
56330;BME280;42236;48.058;10.632;2023-04-20T00:25:08;94518.81;;;3.70;100.00
56330;BME280;42236;48.058;10.632;2023-04-20T00:27:54;94510.00;;;3.69;100.00
56330;BME280;42236;48.058;10.632;2023-04-20T00:30:39;94509.50;;;3.67;100.00
56330;BME280;42236;48.058;10.632;2023-04-20T00:33:25;94503.88;;;3.69;100.00
56330;BME280;42236;48.058;10.632;2023-04-20T00:36:11;94493.22;;;3.69;100.00
56330;BME280;42236;48.058;10.632;2023-04-20T00:38:57;94480.09;;;3.72;100.00
56330;BME280;42236;48.058;10.632;2023-04-20T00:41:43;94477.88;;;3.74;100.00
56330;BME280;42236;48.058;10.632;2023-04-20T00:44:28;94486.38;;;3.76;100.00
56330;BME280;42236;48.058;10.632;2023-04-20T00:47:14;94485.09;;;3.74;100.00
56330;BME280;42236;48.058;10.632;2023-04-20T00:50:00;94485.31;;;3.77;100.00
56330;BME280;42236;48.058;10.632;2023-04-20T00:52:46;94487.06;;;3.82;100.00
56330;BME280;42236;48.058;10.632;2023-04-20T00:55:32;94478.25;;;3.81;100.00
56330;BME280;42236;48.058;10.632;2023-04-20T00:58:20;94472.47;;;3.79;100.00
56330;BME280;42236;48.058;10.632;2023-04-20T01:01:05;94466.19;;;3.84;100.00
56330;BME280;42236;48.058;10.632;2023-04-20T01:03:52;94465.34;;;3.75;100.00
56330;BME280;42236;48.058;10.632;2023-04-20T01:06:38;94468.47;;;3.77;100.00
56330;BME280;42236;48.058;10.632;2023-04-20T01:09:23;94453.09;;;3.74;100.00
56330;BME280;42236;48.058;10.632;2023-04-20T01:12:09;94462.44;;;3.62;100.00
56330;BME280;42236;48.058;10.632;2023-04-20T01:14:56;94453.13;;;3.60;100.00
56330;BME280;42236;48.058;10.632;2023-04-20T01:17:41;94441.50;;;3.56;100.00
56330;BME280;42236;48.058;10.632;2023-04-20T01:20:27;94442.28;;;3.56;100.00
56330;BME280;42236;48.058;10.632;2023-04-20T01:23:14;94442.56;;;3.55;100.00
56330;BME280;42236;48.058;10.632;2023-04-20T01:26:05;94443.78;;;3.49;100.00
56330;BME280;42236;48.058;10.632;2023-04-20T01:28:50;94446.63;;;3.52;100.00
56330;BME280;42236;48.058;10.632;2023-04-20T01:31:36;94428.16;;;3.56;100.00
56330;BME280;42236;48.058;10.632;2023-04-20T01:34:22;94424.09;;;3.58;100.00
56330;BME280;42236;48.058;10.632;2023-04-20T01:37:07;94418.75;;;3.58;100.00
56330;BME280;42236;48.058;10.632;2023-04-20T01:39:53;94412.03;;;3.61;100.00
56330;BME280;42236;48.058;10.632;2023-04-20T01:42:39;94413.81;;;3.66;100.00
56330;BME280;42236;48.058;10.632;2023-04-20T01:45:24;94423.56;;;3.70;100.00
56330;BME280;42236;48.058;10.632;2023-04-20T01:48:10;94414.97;;;3.73;100.00
56330;BME280;42236;48.058;10.632;2023-04-20T01:50:56;94419.19;;;3.74;100.00
56330;BME280;42236;48.058;10.632;2023-04-20T01:53:42;94406.47;;;3.71;100.00
56330;BME280;42236;48.058;10.632;2023-04-20T01:56:28;94411.91;;;3.66;100.00
56330;BME280;42236;48.058;10.632;2023-04-20T01:59:13;94410.03;;;3.67;100.00
56330;BME280;42236;48.058;10.632;2023-04-20T02:01:59;94403.31;;;3.69;100.00
56330;BME280;42236;48.058;10.632;2023-04-20T02:04:45;94396.13;;;3.70;100.00
56330;BME280;42236;48.058;10.632;2023-04-20T02:07:30;94384.13;;;3.67;100.00
56330;BME280;42236;48.058;10.632;2023-04-20T02:10:16;94379.63;;;3.68;100.00
56330;BME280;42236;48.058;10.632;2023-04-20T02:13:02;94396.41;;;3.68;100.00
56330;BME280;42236;48.058;10.632;2023-04-20T02:15:48;94398.78;;;3.70;100.00
56330;BME280;42236;48.058;10.632;2023-04-20T02:18:33;94385.72;;;3.68;100.00
56330;BME280;42236;48.058;10.632;2023-04-20T02:21:19;94385.25;;;3.66;100.00
56330;BME280;42236;48.058;10.632;2023-04-20T02:24:05;94378.03;;;3.67;100.00
56330;BME280;42236;48.058;10.632;2023-04-20T02:26:51;94383.34;;;3.67;100.00
56330;BME280;42236;48.058;10.632;2023-04-20T02:29:36;94381.78;;;3.66;100.00
56330;BME280;42236;48.058;10.632;2023-04-20T02:32:22;94373.97;;;3.69;100.00
56330;BME280;42236;48.058;10.632;2023-04-20T02:35:08;94387.53;;;3.59;100.00
56330;BME280;42236;48.058;10.632;2023-04-20T02:37:54;94385.97;;;3.58;100.00
56330;BME280;42236;48.058;10.632;2023-04-20T02:40:39;94385.97;;;3.58;100.00
56330;BME280;42236;48.058;10.632;2023-04-20T02:43:25;94375.31;;;3.58;100.00
56330;BME280;42236;48.058;10.632;2023-04-20T02:46:11;94376.59;;;3.60;100.00
56330;BME280;42236;48.058;10.632;2023-04-20T02:48:56;94365.22;;;3.55;100.00
56330;BME280;42236;48.058;10.632;2023-04-20T02:51:42;94363.66;;;3.54;100.00
56330;BME280;42236;48.058;10.632;2023-04-20T02:54:27;94359.09;;;3.54;100.00
56330;BME280;42236;48.058;10.632;2023-04-20T02:57:13;94355.38;;;3.55;100.00
56330;BME280;42236;48.058;10.632;2023-04-20T02:59:59;94353.28;;;3.52;100.00
56330;BME280;42236;48.058;10.632;2023-04-20T03:02:45;94353.47;;;3.56;100.00
56330;BME280;42236;48.058;10.632;2023-04-20T03:05:31;94347.94;;;3.52;100.00
56330;BME280;42236;48.058;10.632;2023-04-20T03:08:17;94349.84;;;3.52;100.00
56330;BME280;42236;48.058;10.632;2023-04-20T03:11:02;94348.16;;;3.56;100.00
56330;BME280;42236;48.058;10.632;2023-04-20T03:13:48;94364.03;;;3.61;100.00
56330;BME280;42236;48.058;10.632;2023-04-20T03:16:34;94356.16;;;3.56;100.00
56330;BME280;42236;48.058;10.632;2023-04-20T03:19:19;94344.22;;;3.53;100.00
56330;BME280;42236;48.058;10.632;2023-04-20T03:22:05;94342.31;;;3.54;100.00
56330;BME280;42236;48.058;10.632;2023-04-20T03:24:51;94333.66;;;3.48;100.00
56330;BME280;42236;48.058;10.632;2023-04-20T03:27:36;94330.31;;;3.42;100.00
56330;BME280;42236;48.058;10.632;2023-04-20T03:30:22;94330.94;;;3.39;100.00
56330;BME280;42236;48.058;10.632;2023-04-20T03:33:08;94330.13;;;3.39;100.00
56330;BME280;42236;48.058;10.632;2023-04-20T03:35:54;94320.13;;;3.45;100.00
56330;BME280;42236;48.058;10.632;2023-04-20T03:38:39;94320.63;;;3.47;100.00
56330;BME280;42236;48.058;10.632;2023-04-20T03:41:25;94316.84;;;3.48;100.00
56330;BME280;42236;48.058;10.632;2023-04-20T03:44:10;94315.16;;;3.52;100.00
56330;BME280;42236;48.058;10.632;2023-04-20T03:46:56;94310.31;;;3.54;100.00
56330;BME280;42236;48.058;10.632;2023-04-20T03:49:42;94311.88;;;3.55;100.00
56330;BME280;42236;48.058;10.632;2023-04-20T03:52:27;94311.53;;;3.48;100.00
56330;BME280;42236;48.058;10.632;2023-04-20T03:55:13;94313.41;;;3.47;100.00
56330;BME280;42236;48.058;10.632;2023-04-20T03:57:59;94313.91;;;3.49;100.00
56330;BME280;42236;48.058;10.632;2023-04-20T04:00:44;94302.03;;;3.55;100.00
56330;BME280;42236;48.058;10.632;2023-04-20T04:03:30;94306.91;;;3.62;100.00
56330;BME280;42236;48.058;10.632;2023-04-20T04:06:16;94308.31;;;3.59;100.00
56330;BME280;42236;48.058;10.632;2023-04-20T04:09:01;94314.63;;;3.63;100.00
56330;BME280;42236;48.058;10.632;2023-04-20T04:11:47;94308.50;;;3.63;100.00
56330;BME280;42236;48.058;10.632;2023-04-20T04:14:33;94314.78;;;3.67;100.00
56330;BME280;42236;48.058;10.632;2023-04-20T04:17:19;94305.09;;;3.71;100.00
56330;BME280;42236;48.058;10.632;2023-04-20T04:20:05;94305.09;;;3.71;100.00
56330;BME280;42236;48.058;10.632;2023-04-20T04:22:53;94303.66;;;3.65;100.00
56330;BME280;42236;48.058;10.632;2023-04-20T04:25:39;94299.22;;;3.60;100.00
56330;BME280;42236;48.058;10.632;2023-04-20T04:28:25;94302.19;;;3.59;100.00
56330;BME280;42236;48.058;10.632;2023-04-20T04:31:10;94301.22;;;3.55;100.00
56330;BME280;42236;48.058;10.632;2023-04-20T04:33:56;94295.31;;;3.58;100.00
56330;BME280;42236;48.058;10.632;2023-04-20T04:36:42;94292.16;;;3.56;100.00
56330;BME280;42236;48.058;10.632;2023-04-20T04:39:28;94287.44;;;3.53;100.00
56330;BME280;42236;48.058;10.632;2023-04-20T04:42:14;94283.16;;;3.52;100.00
56330;BME280;42236;48.058;10.632;2023-04-20T04:45:01;94287.44;;;3.53;100.00
56330;BME280;42236;48.058;10.632;2023-04-20T04:47:47;94281.91;;;3.49;100.00
56330;BME280;42236;48.058;10.632;2023-04-20T04:50:33;94290.38;;;3.51;100.00
56330;BME280;42236;48.058;10.632;2023-04-20T04:53:19;94287.59;;;3.56;100.00
56330;BME280;42236;48.058;10.632;2023-04-20T04:56:05;94286.81;;;3.56;100.00
56330;BME280;42236;48.058;10.632;2023-04-20T04:58:51;94294.44;;;3.49;100.00
56330;BME280;42236;48.058;10.632;2023-04-20T05:01:36;94288.13;;;3.45;100.00
56330;BME280;42236;48.058;10.632;2023-04-20T05:04:22;94275.41;;;3.41;100.00
56330;BME280;42236;48.058;10.632;2023-04-20T05:07:08;94273.47;;;3.33;100.00
56330;BME280;42236;48.058;10.632;2023-04-20T05:09:56;94285.84;;;3.29;100.00
56330;BME280;42236;48.058;10.632;2023-04-20T05:12:42;94280.63;;;3.24;100.00
56330;BME280;42236;48.058;10.632;2023-04-20T05:15:27;94281.41;;;3.25;100.00
56330;BME280;42236;48.058;10.632;2023-04-20T05:18:13;94276.09;;;3.25;100.00
56330;BME280;42236;48.058;10.632;2023-04-20T05:20:59;94275.66;;;3.31;100.00
56330;BME280;42236;48.058;10.632;2023-04-20T05:23:44;94283.34;;;3.33;100.00
56330;BME280;42236;48.058;10.632;2023-04-20T05:26:30;94276.25;;;3.28;100.00
56330;BME280;42236;48.058;10.632;2023-04-20T05:29:16;94275.31;;;3.24;100.00
56330;BME280;42236;48.058;10.632;2023-04-20T05:32:01;94274.69;;;3.27;100.00
56330;BME280;42236;48.058;10.632;2023-04-20T05:34:47;94274.22;;;3.25;100.00
56330;BME280;42236;48.058;10.632;2023-04-20T05:37:33;94279.41;;;3.30;100.00
56330;BME280;42236;48.058;10.632;2023-04-20T05:40:18;94275.19;;;3.29;100.00
56330;BME280;42236;48.058;10.632;2023-04-20T05:43:04;94279.13;;;3.32;100.00
56330;BME280;42236;48.058;10.632;2023-04-20T05:45:50;94274.56;;;3.32;100.00
56330;BME280;42236;48.058;10.632;2023-04-20T05:48:36;94277.84;;;3.29;100.00
56330;BME280;42236;48.058;10.632;2023-04-20T05:51:21;94278.78;;;3.33;100.00
56330;BME280;42236;48.058;10.632;2023-04-20T05:54:07;94281.81;;;3.40;100.00
56330;BME280;42236;48.058;10.632;2023-04-20T05:56:54;94279.28;;;3.35;100.00
56330;BME280;42236;48.058;10.632;2023-04-20T05:59:40;94282.94;;;3.39;100.00
56330;BME280;42236;48.058;10.632;2023-04-20T06:02:26;94284.19;;;3.42;100.00
56330;BME280;42236;48.058;10.632;2023-04-20T06:05:11;94288.44;;;3.43;100.00
56330;BME280;42236;48.058;10.632;2023-04-20T06:07:57;94284.41;;;3.46;100.00
56330;BME280;42236;48.058;10.632;2023-04-20T06:10:43;94288.63;;;3.47;100.00
56330;BME280;42236;48.058;10.632;2023-04-20T06:13:29;94287.66;;;3.42;100.00
56330;BME280;42236;48.058;10.632;2023-04-20T06:16:14;94283.28;;;3.47;100.00
56330;BME280;42236;48.058;10.632;2023-04-20T06:19:00;94285.34;;;3.50;100.00
56330;BME280;42236;48.058;10.632;2023-04-20T06:21:46;94289.13;;;3.49;100.00
56330;BME280;42236;48.058;10.632;2023-04-20T06:24:31;94285.84;;;3.52;100.00
56330;BME280;42236;48.058;10.632;2023-04-20T06:27:17;94282.88;;;3.53;100.00
56330;BME280;42236;48.058;10.632;2023-04-20T06:30:03;94289.34;;;3.61;100.00
56330;BME280;42236;48.058;10.632;2023-04-20T06:32:49;94288.38;;;3.57;100.00
56330;BME280;42236;48.058;10.632;2023-04-20T06:35:35;94285.69;;;3.57;100.00
56330;BME280;42236;48.058;10.632;2023-04-20T06:38:21;94290.31;;;3.65;100.00
56330;BME280;42236;48.058;10.632;2023-04-20T06:41:07;94290.78;;;3.67;100.00
56330;BME280;42236;48.058;10.632;2023-04-20T06:43:52;94296.72;;;3.64;100.00
56330;BME280;42236;48.058;10.632;2023-04-20T06:46:38;94291.88;;;3.66;100.00
56330;BME280;42236;48.058;10.632;2023-04-20T06:49:24;94286.75;;;3.70;100.00
56330;BME280;42236;48.058;10.632;2023-04-20T06:52:09;94290.69;;;3.72;100.00
56330;BME280;42236;48.058;10.632;2023-04-20T06:54:57;94279.19;;;3.72;100.00
56330;BME280;42236;48.058;10.632;2023-04-20T06:57:43;94276.84;;;3.70;100.00
56330;BME280;42236;48.058;10.632;2023-04-20T07:00:29;94269.50;;;3.76;100.00
56330;BME280;42236;48.058;10.632;2023-04-20T07:03:15;94277.22;;;3.77;100.00
56330;BME280;42236;48.058;10.632;2023-04-20T07:06:03;94278.16;;;3.81;100.00
56330;BME280;42236;48.058;10.632;2023-04-20T07:08:49;94281.63;;;3.82;100.00
56330;BME280;42236;48.058;10.632;2023-04-20T07:11:34;94276.47;;;3.85;100.00
56330;BME280;42236;48.058;10.632;2023-04-20T07:14:20;94271.75;;;3.82;100.00
56330;BME280;42236;48.058;10.632;2023-04-20T07:17:06;94273.91;;;3.80;100.00
56330;BME280;42236;48.058;10.632;2023-04-20T07:19:51;94272.03;;;3.81;100.00
56330;BME280;42236;48.058;10.632;2023-04-20T07:22:37;94280.38;;;3.79;100.00
56330;BME280;42236;48.058;10.632;2023-04-20T07:25:23;94286.28;;;3.76;100.00
56330;BME280;42236;48.058;10.632;2023-04-20T07:28:10;94286.16;;;3.81;100.00
56330;BME280;42236;48.058;10.632;2023-04-20T07:30:55;94296.53;;;3.83;100.00
56330;BME280;42236;48.058;10.632;2023-04-20T07:33:41;94312.38;;;3.79;100.00
56330;BME280;42236;48.058;10.632;2023-04-20T07:36:28;94305.44;;;3.78;100.00
56330;BME280;42236;48.058;10.632;2023-04-20T07:39:14;94323.63;;;3.76;100.00
56330;BME280;42236;48.058;10.632;2023-04-20T07:42:01;94310.50;;;3.80;100.00
56330;BME280;42236;48.058;10.632;2023-04-20T07:44:47;94301.81;;;3.74;100.00
56330;BME280;42236;48.058;10.632;2023-04-20T07:47:33;94294.06;;;3.64;100.00
56330;BME280;42236;48.058;10.632;2023-04-20T07:50:19;94288.56;;;3.60;100.00
56330;BME280;42236;48.058;10.632;2023-04-20T07:53:06;94279.88;;;3.55;100.00
56330;BME280;42236;48.058;10.632;2023-04-20T07:55:51;94288.84;;;3.59;100.00
56330;BME280;42236;48.058;10.632;2023-04-20T07:58:37;94290.75;;;3.58;100.00
56330;BME280;42236;48.058;10.632;2023-04-20T08:01:25;94290.69;;;3.72;100.00
56330;BME280;42236;48.058;10.632;2023-04-20T08:04:11;94283.47;;;3.73;100.00
56330;BME280;42236;48.058;10.632;2023-04-20T08:06:56;94264.72;;;3.64;100.00
56330;BME280;42236;48.058;10.632;2023-04-20T08:09:42;94248.28;;;3.71;100.00
56330;BME280;42236;48.058;10.632;2023-04-20T08:12:28;94241.69;;;3.68;100.00
56330;BME280;42236;48.058;10.632;2023-04-20T08:15:13;94245.75;;;3.66;100.00
56330;BME280;42236;48.058;10.632;2023-04-20T08:17:59;94249.72;;;3.77;100.00
56330;BME280;42236;48.058;10.632;2023-04-20T08:20:44;94261.91;;;3.92;100.00
56330;BME280;42236;48.058;10.632;2023-04-20T08:23:30;94260.72;;;4.15;100.00
56330;BME280;42236;48.058;10.632;2023-04-20T08:26:16;94266.72;;;4.30;100.00
56330;BME280;42236;48.058;10.632;2023-04-20T08:29:03;94252.63;;;4.38;99.61
56330;BME280;42236;48.058;10.632;2023-04-20T08:31:49;94261.13;;;4.40;98.83
56330;BME280;42236;48.058;10.632;2023-04-20T08:34:35;94249.16;;;4.28;98.39
56330;BME280;42236;48.058;10.632;2023-04-20T08:37:21;94259.84;;;4.28;98.65
56330;BME280;42236;48.058;10.632;2023-04-20T08:40:08;94258.75;;;4.38;98.89
56330;BME280;42236;48.058;10.632;2023-04-20T08:42:53;94253.91;;;4.49;99.47
56330;BME280;42236;48.058;10.632;2023-04-20T08:45:42;94247.16;;;4.52;98.44
56330;BME280;42236;48.058;10.632;2023-04-20T08:48:35;94252.63;;;4.38;99.01
56330;BME280;42236;48.058;10.632;2023-04-20T08:51:21;94255.47;;;4.41;99.01
56330;BME280;42236;48.058;10.632;2023-04-20T08:54:07;94259.25;;;4.49;98.94
56330;BME280;42236;48.058;10.632;2023-04-20T08:56:53;94246.84;;;4.53;98.57
56330;BME280;42236;48.058;10.632;2023-04-20T08:59:39;94241.53;;;4.62;98.62
56330;BME280;42236;48.058;10.632;2023-04-20T09:02:24;94237.75;;;4.63;98.33
56330;BME280;42236;48.058;10.632;2023-04-20T09:05:10;94242.63;;;4.52;97.04
56330;BME280;42236;48.058;10.632;2023-04-20T09:07:59;94243.25;;;4.58;96.98
56330;BME280;42236;48.058;10.632;2023-04-20T09:10:46;94239.34;;;4.81;97.67
56330;BME280;42236;48.058;10.632;2023-04-20T09:13:32;94236.06;;;5.10;97.85
56330;BME280;42236;48.058;10.632;2023-04-20T09:16:17;94236.03;;;5.28;96.91
56330;BME280;42236;48.058;10.632;2023-04-20T09:19:03;94234.31;;;5.23;94.37
56330;BME280;42236;48.058;10.632;2023-04-20T09:21:50;94237.47;;;5.34;95.95
56330;BME280;42236;48.058;10.632;2023-04-20T09:24:37;94229.44;;;5.34;95.35
56330;BME280;42236;48.058;10.632;2023-04-20T09:27:23;94210.84;;;5.29;95.15
56330;BME280;42236;48.058;10.632;2023-04-20T09:30:10;94212.28;;;5.26;95.54
56330;BME280;42236;48.058;10.632;2023-04-20T09:33:01;94224.72;;;5.13;94.60
56330;BME280;42236;48.058;10.632;2023-04-20T09:35:47;94233.53;;;5.05;95.57
56330;BME280;42236;48.058;10.632;2023-04-20T09:38:32;94226.47;;;5.01;95.27
56330;BME280;42236;48.058;10.632;2023-04-20T09:41:18;94231.00;;;4.83;95.09
56330;BME280;42236;48.058;10.632;2023-04-20T09:44:05;94221.28;;;4.69;94.85
56330;BME280;42236;48.058;10.632;2023-04-20T09:46:51;94223.78;;;4.57;95.10
56330;BME280;42236;48.058;10.632;2023-04-20T09:49:36;94215.09;;;4.52;95.99
56330;BME280;42236;48.058;10.632;2023-04-20T09:52:22;94213.88;;;4.66;96.52
56330;BME280;42236;48.058;10.632;2023-04-20T09:55:09;94220.00;;;4.76;96.51
56330;BME280;42236;48.058;10.632;2023-04-20T09:57:55;94220.00;;;4.76;95.86
56330;BME280;42236;48.058;10.632;2023-04-20T10:00:41;94227.56;;;4.74;95.57
56330;BME280;42236;48.058;10.632;2023-04-20T10:03:27;94237.13;;;4.75;96.34
56330;BME280;42236;48.058;10.632;2023-04-20T10:06:23;94238.56;;;4.72;96.31
56330;BME280;42236;48.058;10.632;2023-04-20T10:09:21;94235.09;;;4.80;97.47
56330;BME280;42236;48.058;10.632;2023-04-20T10:12:08;94236.84;;;4.85;96.89
56330;BME280;42236;48.058;10.632;2023-04-20T10:14:54;94240.28;;;4.94;97.08
56330;BME280;42236;48.058;10.632;2023-04-20T10:17:41;94236.34;;;4.83;95.51
56330;BME280;42236;48.058;10.632;2023-04-20T10:20:27;94237.00;;;4.80;96.17
56330;BME280;42236;48.058;10.632;2023-04-20T10:23:14;94243.44;;;4.79;96.43
56330;BME280;42236;48.058;10.632;2023-04-20T10:26:00;94237.63;;;4.77;95.82
56330;BME280;42236;48.058;10.632;2023-04-20T10:28:47;94233.84;;;4.78;96.49
56330;BME280;42236;48.058;10.632;2023-04-20T10:31:40;94238.84;;;4.70;97.00
56330;BME280;42236;48.058;10.632;2023-04-20T10:34:30;94231.81;;;4.75;97.32
56330;BME280;42236;48.058;10.632;2023-04-20T10:37:16;94250.19;;;4.85;97.88
56330;BME280;42236;48.058;10.632;2023-04-20T10:40:02;94238.72;;;5.02;97.37
56330;BME280;42236;48.058;10.632;2023-04-20T10:42:48;94241.53;;;5.14;96.80
56330;BME280;42236;48.058;10.632;2023-04-20T10:45:37;94233.53;;;5.23;96.57
56330;BME280;42236;48.058;10.632;2023-04-20T10:48:23;94232.88;;;5.26;96.91
56330;BME280;42236;48.058;10.632;2023-04-20T10:51:09;94233.19;;;5.33;95.88
56330;BME280;42236;48.058;10.632;2023-04-20T10:53:59;94226.28;;;5.32;94.63
56330;BME280;42236;48.058;10.632;2023-04-20T10:56:47;94223.16;;;5.30;94.63
56330;BME280;42236;48.058;10.632;2023-04-20T10:59:33;94204.59;;;5.25;94.12
56330;BME280;42236;48.058;10.632;2023-04-20T11:02:26;94203.81;;;5.16;94.41
56330;BME280;42236;48.058;10.632;2023-04-20T11:05:12;94198.47;;;5.24;95.01
56330;BME280;42236;48.058;10.632;2023-04-20T11:07:59;94201.56;;;5.35;95.29
56330;BME280;42236;48.058;10.632;2023-04-20T11:10:45;94196.34;;;5.47;94.63
56330;BME280;42236;48.058;10.632;2023-04-20T11:13:31;94192.84;;;5.55;93.74
56330;BME280;42236;48.058;10.632;2023-04-20T11:16:18;94182.31;;;5.68;93.85
56330;BME280;42236;48.058;10.632;2023-04-20T11:19:04;94172.34;;;5.77;93.26
56330;BME280;42236;48.058;10.632;2023-04-20T11:21:50;94166.78;;;5.82;92.48
56330;BME280;42236;48.058;10.632;2023-04-20T11:24:35;94160.78;;;5.94;92.62
56330;BME280;42236;48.058;10.632;2023-04-20T11:27:22;94165.25;;;5.81;91.12
56330;BME280;42236;48.058;10.632;2023-04-20T11:30:09;94156.75;;;5.79;92.72
56330;BME280;42236;48.058;10.632;2023-04-20T11:32:55;94161.13;;;5.84;93.09
56330;BME280;42236;48.058;10.632;2023-04-20T11:35:41;94157.50;;;5.88;93.12
56330;BME280;42236;48.058;10.632;2023-04-20T11:38:32;94164.13;;;5.82;91.60
56330;BME280;42236;48.058;10.632;2023-04-20T11:41:18;94172.16;;;5.82;91.39
56330;BME280;42236;48.058;10.632;2023-04-20T11:44:04;94177.84;;;5.81;92.30
56330;BME280;42236;48.058;10.632;2023-04-20T11:46:51;94179.22;;;5.87;92.79
56330;BME280;42236;48.058;10.632;2023-04-20T11:49:38;94189.50;;;5.85;91.80
56330;BME280;42236;48.058;10.632;2023-04-20T11:52:24;94183.97;;;5.81;92.44
56330;BME280;42236;48.058;10.632;2023-04-20T11:55:10;94185.25;;;5.75;92.43
56330;BME280;42236;48.058;10.632;2023-04-20T11:57:55;94180.19;;;5.82;92.84
56330;BME280;42236;48.058;10.632;2023-04-20T12:00:41;94181.91;;;5.95;93.04
56330;BME280;42236;48.058;10.632;2023-04-20T12:03:27;94181.16;;;6.16;92.56
56330;BME280;42236;48.058;10.632;2023-04-20T12:06:12;94193.34;;;6.05;90.77
56330;BME280;42236;48.058;10.632;2023-04-20T12:08:59;94189.44;;;5.93;91.18
56330;BME280;42236;48.058;10.632;2023-04-20T12:11:45;94196.88;;;5.79;91.55
56330;BME280;42236;48.058;10.632;2023-04-20T12:14:30;94200.84;;;5.73;92.06
56330;BME280;42236;48.058;10.632;2023-04-20T12:17:19;94189.69;;;5.71;92.39
56330;BME280;42236;48.058;10.632;2023-04-20T12:20:05;94190.00;;;5.69;92.55
56330;BME280;42236;48.058;10.632;2023-04-20T12:22:53;94191.72;;;5.74;92.87
56330;BME280;42236;48.058;10.632;2023-04-20T12:25:38;94197.06;;;5.74;92.66
56330;BME280;42236;48.058;10.632;2023-04-20T12:28:24;94183.41;;;5.67;92.22
56330;BME280;42236;48.058;10.632;2023-04-20T12:31:10;94196.47;;;5.60;92.96
56330;BME280;42236;48.058;10.632;2023-04-20T12:33:55;94194.47;;;5.48;92.29
56330;BME280;42236;48.058;10.632;2023-04-20T12:36:41;94188.16;;;5.52;93.12
56330;BME280;42236;48.058;10.632;2023-04-20T12:39:27;94175.69;;;5.65;93.30
56330;BME280;42236;48.058;10.632;2023-04-20T12:42:12;94169.19;;;5.75;92.44
56330;BME280;42236;48.058;10.632;2023-04-20T12:44:58;94177.06;;;5.80;92.16
56330;BME280;42236;48.058;10.632;2023-04-20T12:47:44;94166.78;;;5.91;92.72
56330;BME280;42236;48.058;10.632;2023-04-20T12:50:29;94171.75;;;6.10;92.61
56330;BME280;42236;48.058;10.632;2023-04-20T12:53:15;94162.84;;;6.27;92.24
56330;BME280;42236;48.058;10.632;2023-04-20T12:56:01;94167.41;;;6.26;91.58
56330;BME280;42236;48.058;10.632;2023-04-20T12:58:46;94165.19;;;6.28;91.51
56330;BME280;42236;48.058;10.632;2023-04-20T13:01:32;94164.81;;;6.38;91.86
56330;BME280;42236;48.058;10.632;2023-04-20T13:04:18;94145.88;;;6.44;91.12
56330;BME280;42236;48.058;10.632;2023-04-20T13:07:03;94142.47;;;6.34;89.64
56330;BME280;42236;48.058;10.632;2023-04-20T13:09:50;94150.84;;;6.54;90.12
56330;BME280;42236;48.058;10.632;2023-04-20T13:12:36;94148.69;;;6.68;89.03
56330;BME280;42236;48.058;10.632;2023-04-20T13:15:24;94155.03;;;6.84;88.73
56330;BME280;42236;48.058;10.632;2023-04-20T13:18:10;94152.72;;;6.53;88.85
56330;BME280;42236;48.058;10.632;2023-04-20T13:20:56;94145.88;;;6.44;89.67
56330;BME280;42236;48.058;10.632;2023-04-20T13:23:42;94143.00;;;6.49;89.60
56330;BME280;42236;48.058;10.632;2023-04-20T13:26:27;94155.81;;;6.43;89.97
56330;BME280;42236;48.058;10.632;2023-04-20T13:29:13;94151.16;;;6.31;90.13
56330;BME280;42236;48.058;10.632;2023-04-20T13:31:59;94150.50;;;6.34;89.24
56330;BME280;42236;48.058;10.632;2023-04-20T13:34:44;94150.59;;;6.17;90.04
56330;BME280;42236;48.058;10.632;2023-04-20T13:37:30;94140.63;;;6.26;90.55
56330;BME280;42236;48.058;10.632;2023-04-20T13:40:17;94148.75;;;6.38;90.48
56330;BME280;42236;48.058;10.632;2023-04-20T13:43:03;94147.88;;;6.47;89.38
56330;BME280;42236;48.058;10.632;2023-04-20T13:45:48;94150.72;;;6.50;89.09
56330;BME280;42236;48.058;10.632;2023-04-20T13:48:34;94152.97;;;6.39;89.17
56330;BME280;42236;48.058;10.632;2023-04-20T13:51:20;94147.41;;;6.45;89.28
56330;BME280;42236;48.058;10.632;2023-04-20T13:54:06;94147.41;;;6.45;88.86
56330;BME280;42236;48.058;10.632;2023-04-20T13:56:51;94144.44;;;6.46;88.94
56330;BME280;42236;48.058;10.632;2023-04-20T13:59:37;94151.03;;;6.49;88.99
56330;BME280;42236;48.058;10.632;2023-04-20T14:02:23;94159.03;;;6.57;88.86
56330;BME280;42236;48.058;10.632;2023-04-20T14:05:09;94153.06;;;6.52;87.08
56330;BME280;42236;48.058;10.632;2023-04-20T14:07:55;94149.53;;;6.60;88.53
56330;BME280;42236;48.058;10.632;2023-04-20T14:10:41;94148.41;;;6.61;88.19
56330;BME280;42236;48.058;10.632;2023-04-20T14:13:26;94150.38;;;6.73;87.41
56330;BME280;42236;48.058;10.632;2023-04-20T14:16:12;94152.34;;;6.84;87.10
56330;BME280;42236;48.058;10.632;2023-04-20T14:19:01;94153.38;;;6.92;87.44
56330;BME280;42236;48.058;10.632;2023-04-20T14:21:46;94156.84;;;6.93;86.29
56330;BME280;42236;48.058;10.632;2023-04-20T14:24:32;94158.53;;;6.76;87.26
56330;BME280;42236;48.058;10.632;2023-04-20T14:27:18;94162.03;;;6.77;88.26
56330;BME280;42236;48.058;10.632;2023-04-20T14:30:04;94167.38;;;6.77;88.06
56330;BME280;42236;48.058;10.632;2023-04-20T14:32:58;94167.38;;;6.77;88.03